Time,TemperatureF,DewpointF,PressureIn,WindDirection,WindDirectionDegrees,WindSpeedMPH,WindSpeedGustMPH,Humidity,HourlyPrecipIn,Conditions,Clouds,dailyrainin,SoftwareType,DateUTC
2013-07-29 00:00:00,59.2,54.4,29.91,NW,308,0.0,0.0,84,0.00,,---,0.06,VWS V14.00,2013-07-29 05:00:00,
2013-07-29 00:02:00,59.3,54.5,29.91,NW,308,0.0,0.0,84,0.00,,---,0.00,VWS V14.00,2013-07-29 05:02:00,
2013-07-29 00:05:00,59.3,54.5,29.91,NW,308,0.0,0.0,84,0.00,,---,0.00,VWS V14.00,2013-07-29 05:05:00,
2013-07-29 00:07:00,59.3,54.5,29.91,NW,308,0.0,0.0,84,0.00,,---,0.00,VWS V14.00,2013-07-29 05:07:00,
2013-07-29 00:10:00,59.3,54.5,29.91,NW,308,0.0,0.0,84,0.00,,---,0.00,VWS V14.00,2013-07-29 05:10:00,
2013-07-29 00:12:00,59.3,54.5,29.91,NW,308,0.0,0.0,84,0.00,,---,0.00,VWS V14.00,2013-07-29 05:12:00,
2013-07-29 00:15:00,59.4,54.6,29.91,NW,308,0.0,0.0,84,0.00,,---,0.00,VWS V14.00,2013-07-29 05:15:00,
2013-07-29 00:17:00,59.4,54.6,29.91,NW,307,0.0,0.0,84,0.00,,---,0.00,VWS V14.00,2013-07-29 05:17:00,
2013-07-29 00:20:00,59.4,54.9,29.91,NW,308,0.0,0.0,85,0.00,,---,0.00,VWS V14.00,2013-07-29 05:20:00,
2013-07-29 00:22:00,59.4,54.9,29.91,NW,308,0.0,0.0,85,0.00,,---,0.00,VWS V14.00,2013-07-29 05:22:00,
2013-07-29 00:25:00,59.5,55.0,29.91,NW,308,0.0,0.0,85,0.00,,---,0.00,VWS V14.00,2013-07-29 05:25:00,
2013-07-29 00:27:00,59.4,54.6,29.91,NW,308,0.0,0.0,84,0.00,,---,0.00,VWS V14.00,2013-07-29 05:27:00,
2013-07-29 00:30:00,59.4,54.9,29.92,NW,307,0.0,0.0,85,0.00,,---,0.00,VWS V14.00,2013-07-29 05:30:00,
2013-07-29 00:32:00,59.4,54.9,29.92,NW,308,0.0,0.0,85,0.00,,---,0.00,VWS V14.00,2013-07-29 05:32:00,
2013-07-29 00:35:00,59.4,54.9,29.92,NW,308,0.0,0.0,85,0.00,,---,0.00,VWS V14.00,2013-07-29 05:35:00,
2013-07-29 00:37:00,59.4,54.9,29.92,NW,308,0.0,0.0,85,0.00,,---,0.00,VWS V14.00,2013-07-29 05:37:00,
2013-07-29 00:40:00,59.3,54.8,29.92,NW,308,0.0,0.0,85,0.00,,---,0.00,VWS V14.00,2013-07-29 05:40:00,
2013-07-29 00:42:00,59.3,55.1,29.92,NW,307,0.0,0.0,86,0.00,,---,0.00,VWS V14.00,2013-07-29 05:42:00,
2013-07-29 00:45:00,59.3,55.1,29.92,NW,308,0.0,0.0,86,0.00,,---,0.00,VWS V14.00,2013-07-29 05:45:00,
2013-07-29 00:47:00,59.2,55.0,29.92,NW,308,0.0,0.0,86,0.00,,---,0.00,VWS V14.00,2013-07-29 05:47:00,
2013-07-29 00:50:00,59.1,54.9,29.92,NW,307,0.0,0.0,86,0.00,,---,0.00,VWS V14.00,2013-07-29 05:50:00,
2013-07-29 00:52:00,59.0,54.8,29.92,NW,307,0.0,0.0,86,0.00,,---,0.00,VWS V14.00,2013-07-29 05:52:00,
2013-07-29 00:55:00,58.9,54.7,29.92,NW,308,0.0,0.0,86,0.00,,---,0.00,VWS V14.00,2013-07-29 05:55:00,
2013-07-29 00:57:00,58.8,54.6,29.92,NW,307,0.0,0.0,86,0.00,,---,0.00,VWS V14.00,2013-07-29 05:57:00,
2013-07-29 01:00:00,58.7,54.5,29.92,NW,308,0.0,0.0,86,0.00,,---,0.00,VWS V14.00,2013-07-29 06:00:00,
2013-07-29 01:02:00,58.5,54.3,29.92,NW,308,0.0,0.0,86,0.00,,---,0.00,VWS V14.00,2013-07-29 06:02:00,
2013-07-29 01:05:00,58.4,54.2,29.92,NW,307,0.0,0.0,86,0.00,,---,0.00,VWS V14.00,2013-07-29 06:05:00,
2013-07-29 01:07:00,58.1,53.9,29.92,NW,308,0.0,0.0,86,0.00,,---,0.00,VWS V14.00,2013-07-29 06:07:00,
2013-07-29 01:10:00,57.9,53.7,29.92,NW,307,0.0,0.0,86,0.00,,---,0.00,VWS V14.00,2013-07-29 06:10:00,
2013-07-29 01:12:00,57.6,53.8,29.92,NW,308,0.0,0.0,87,0.00,,---,0.00,VWS V14.00,2013-07-29 06:12:00,
2013-07-29 01:15:00,57.5,53.7,29.92,NW,308,0.0,0.0,87,0.00,,---,0.00,VWS V14.00,2013-07-29 06:15:00,
2013-07-29 01:17:00,57.3,53.8,29.92,NW,308,0.0,0.0,88,0.00,,---,0.00,VWS V14.00,2013-07-29 06:17:00,
2013-07-29 01:20:00,57.2,53.7,29.92,NW,308,0.0,0.0,88,0.00,,---,0.00,VWS V14.00,2013-07-29 06:20:00,
2013-07-29 01:22:00,57.0,53.5,29.92,NW,307,0.0,0.0,88,0.00,,---,0.00,VWS V14.00,2013-07-29 06:22:00,
2013-07-29 01:25:00,56.9,53.4,29.92,NW,308,0.0,0.0,88,0.00,,---,0.00,VWS V14.00,2013-07-29 06:25:00,
2013-07-29 01:27:00,56.7,53.5,29.92,NW,308,0.0,0.0,89,0.00,,---,0.00,VWS V14.00,2013-07-29 06:27:00,
2013-07-29 01:30:00,56.6,53.4,29.92,NW,308,0.0,1.0,89,0.00,,---,0.00,VWS V14.00,2013-07-29 06:30:00,
2013-07-29 01:32:00,56.5,53.3,29.92,NW,307,0.0,1.0,89,0.00,,---,0.00,VWS V14.00,2013-07-29 06:32:00,
2013-07-29 01:35:00,56.5,53.3,29.92,NW,308,0.0,1.0,89,0.00,,---,0.00,VWS V14.00,2013-07-29 06:35:00,
2013-07-29 01:37:00,56.4,53.2,29.92,NW,308,0.0,0.0,89,0.00,,---,0.00,VWS V14.00,2013-07-29 06:37:00,
2013-07-29 01:40:00,56.4,53.5,29.92,NW,307,0.0,0.0,90,0.00,,---,0.00,VWS V14.00,2013-07-29 06:40:00,
2013-07-29 01:42:00,56.3,53.4,29.92,NW,307,0.0,0.0,90,0.00,,---,0.00,VWS V14.00,2013-07-29 06:42:00,
2013-07-29 01:45:00,56.3,53.4,29.92,NW,307,0.0,0.0,90,0.00,,---,0.00,VWS V14.00,2013-07-29 06:45:00,
2013-07-29 01:47:00,56.3,53.4,29.92,NW,308,0.0,0.0,90,0.00,,---,0.00,VWS V14.00,2013-07-29 06:47:00,
2013-07-29 01:50:00,56.2,53.3,29.92,NW,308,0.0,0.0,90,0.00,,---,0.00,VWS V14.00,2013-07-29 06:50:00,
2013-07-29 01:52:00,56.2,53.3,29.92,NW,308,0.0,0.0,90,0.00,,---,0.00,VWS V14.00,2013-07-29 06:52:00,
2013-07-29 01:55:00,56.1,53.2,29.92,NW,308,0.0,0.0,90,0.00,,---,0.00,VWS V14.00,2013-07-29 06:55:00,
2013-07-29 01:57:00,55.9,53.0,29.92,NW,307,0.0,0.0,90,0.00,,---,0.00,VWS V14.00,2013-07-29 06:57:00,
2013-07-29 02:00:00,55.9,53.3,29.92,NW,308,0.0,0.0,91,0.00,,---,0.00,VWS V14.00,2013-07-29 07:00:00,
2013-07-29 02:02:00,55.7,53.1,29.92,NW,308,0.0,0.0,91,0.00,,---,0.00,VWS V14.00,2013-07-29 07:02:00,
2013-07-29 02:05:00,55.6,53.0,29.92,NW,308,0.0,0.0,91,0.00,,---,0.00,VWS V14.00,2013-07-29 07:05:00,
2013-07-29 02:07:00,55.4,52.8,29.92,NW,308,0.0,0.0,91,0.00,,---,0.00,VWS V14.00,2013-07-29 07:07:00,
2013-07-29 02:10:00,55.3,52.7,29.92,NW,308,0.0,0.0,91,0.00,,---,0.00,VWS V14.00,2013-07-29 07:10:00,
2013-07-29 02:12:00,55.2,52.6,29.92,NW,308,0.0,0.0,91,0.00,,---,0.00,VWS V14.00,2013-07-29 07:12:00,
2013-07-29 02:15:00,55.2,52.9,29.92,NW,308,0.0,0.0,92,0.00,,---,0.00,VWS V14.00,2013-07-29 07:15:00,
2013-07-29 02:17:00,55.2,52.9,29.92,NW,307,0.0,0.0,92,0.00,,---,0.00,VWS V14.00,2013-07-29 07:17:00,
2013-07-29 02:20:00,55.2,52.9,29.92,NW,307,0.0,0.0,92,0.00,,---,0.00,VWS V14.00,2013-07-29 07:20:00,
2013-07-29 02:22:00,54.9,52.3,29.92,NW,308,0.0,0.0,91,0.00,,---,0.00,VWS V14.00,2013-07-29 07:22:00,
2013-07-29 02:25:00,54.8,52.5,29.92,NW,307,0.0,0.0,92,0.00,,---,0.00,VWS V14.00,2013-07-29 07:25:00,
2013-07-29 02:27:00,54.7,52.4,29.92,NW,308,0.0,0.0,92,0.00,,---,0.00,VWS V14.00,2013-07-29 07:27:00,
2013-07-29 02:30:00,54.7,52.4,29.92,NW,308,0.0,0.0,92,0.00,,---,0.00,VWS V14.00,2013-07-29 07:30:00,
2013-07-29 02:32:00,54.6,52.3,29.92,NW,308,0.0,0.0,92,0.00,,---,0.00,VWS V14.00,2013-07-29 07:32:00,
2013-07-29 02:35:00,54.6,52.3,29.92,NW,308,0.0,0.0,92,0.00,,---,0.00,VWS V14.00,2013-07-29 07:35:00,
2013-07-29 02:37:00,54.6,52.6,29.92,NW,307,0.0,0.0,93,0.00,,---,0.00,VWS V14.00,2013-07-29 07:37:00,
2013-07-29 02:40:00,54.5,52.5,29.93,NW,307,0.0,0.0,93,0.00,,---,0.00,VWS V14.00,2013-07-29 07:40:00,
2013-07-29 02:42:00,54.4,52.4,29.92,NW,308,0.0,0.0,93,0.00,,---,0.00,VWS V14.00,2013-07-29 07:42:00,
2013-07-29 02:45:00,54.3,52.3,29.92,NW,308,0.0,0.0,93,0.00,,---,0.00,VWS V14.00,2013-07-29 07:45:00,
2013-07-29 02:47:00,54.2,51.9,29.92,NW,307,0.0,1.0,92,0.00,,---,0.00,VWS V14.00,2013-07-29 07:47:00,
2013-07-29 02:50:00,54.1,52.1,29.93,NW,308,0.0,1.0,93,0.00,,---,0.00,VWS V14.00,2013-07-29 07:50:00,
2013-07-29 02:53:00,54.0,52.0,29.92,NW,307,0.0,0.0,93,0.00,,---,0.00,VWS V14.00,2013-07-29 07:53:00,
2013-07-29 02:55:00,54.0,52.0,29.92,NW,307,0.0,0.0,93,0.00,,---,0.00,VWS V14.00,2013-07-29 07:55:00,
2013-07-29 02:57:00,54.0,52.0,29.92,NW,307,0.0,0.0,93,0.00,,---,0.00,VWS V14.00,2013-07-29 07:57:00,
2013-07-29 03:00:00,54.0,52.0,29.93,NW,307,0.0,0.0,93,0.00,,---,0.00,VWS V14.00,2013-07-29 08:00:00,
2013-07-29 03:03:00,53.9,51.9,29.93,NW,308,0.0,0.0,93,0.00,,---,0.00,VWS V14.00,2013-07-29 08:03:00,
2013-07-29 03:05:00,53.9,51.9,29.93,NW,308,0.0,0.0,93,0.00,,---,0.00,VWS V14.00,2013-07-29 08:05:00,
2013-07-29 03:08:00,53.9,51.9,29.93,NW,307,0.0,0.0,93,0.00,,---,0.00,VWS V14.00,2013-07-29 08:08:00,
2013-07-29 03:10:00,53.9,51.9,29.93,NW,308,0.0,0.0,93,0.00,,---,0.00,VWS V14.00,2013-07-29 08:10:00,
2013-07-29 03:13:00,53.9,51.9,29.93,NW,308,0.0,0.0,93,0.00,,---,0.00,VWS V14.00,2013-07-29 08:13:00,
2013-07-29 03:15:00,54.0,52.0,29.93,NW,308,0.0,0.0,93,0.00,,---,0.00,VWS V14.00,2013-07-29 08:15:00,
2013-07-29 03:18:00,53.9,51.9,29.92,NW,308,0.0,0.0,93,0.00,,---,0.00,VWS V14.00,2013-07-29 08:18:00,
2013-07-29 03:20:00,53.9,51.9,29.92,NW,307,0.0,0.0,93,0.00,,---,0.00,VWS V14.00,2013-07-29 08:20:00,
2013-07-29 03:23:00,53.7,51.7,29.93,NW,308,0.0,0.0,93,0.00,,---,0.00,VWS V14.00,2013-07-29 08:23:00,
2013-07-29 03:25:00,53.7,51.7,29.93,NW,308,0.0,0.0,93,0.00,,---,0.00,VWS V14.00,2013-07-29 08:25:00,
2013-07-29 03:28:00,53.7,52.0,29.93,NW,307,0.0,0.0,94,0.00,,---,0.00,VWS V14.00,2013-07-29 08:28:00,
2013-07-29 03:30:00,53.7,52.0,29.93,NW,307,0.0,0.0,94,0.00,,---,0.00,VWS V14.00,2013-07-29 08:30:00,
2013-07-29 03:33:00,53.6,51.9,29.93,NW,308,0.0,0.0,94,0.00,,---,0.00,VWS V14.00,2013-07-29 08:33:00,
2013-07-29 03:35:00,53.6,51.9,29.93,NW,308,0.0,0.0,94,0.00,,---,0.00,VWS V14.00,2013-07-29 08:35:00,
2013-07-29 03:38:00,53.5,51.8,29.93,NW,307,0.0,0.0,94,0.00,,---,0.00,VWS V14.00,2013-07-29 08:38:00,
2013-07-29 03:40:00,53.5,51.8,29.93,NW,308,0.0,0.0,94,0.00,,---,0.00,VWS V14.00,2013-07-29 08:40:00,
2013-07-29 03:43:00,53.4,51.7,29.93,NW,308,0.0,0.0,94,0.00,,---,0.00,VWS V14.00,2013-07-29 08:43:00,
2013-07-29 03:45:00,53.4,51.7,29.93,NW,308,0.0,0.0,94,0.00,,---,0.00,VWS V14.00,2013-07-29 08:45:00,
2013-07-29 03:48:00,53.4,51.7,29.93,NW,308,0.0,0.0,94,0.00,,---,0.00,VWS V14.00,2013-07-29 08:48:00,
2013-07-29 03:50:00,53.4,51.7,29.93,NW,308,0.0,0.0,94,0.00,,---,0.00,VWS V14.00,2013-07-29 08:50:00,
2013-07-29 03:53:00,53.5,51.8,29.93,NW,307,0.0,0.0,94,0.00,,---,0.00,VWS V14.00,2013-07-29 08:53:00,
2013-07-29 03:55:00,53.5,51.8,29.93,NW,307,0.0,0.0,94,0.00,,---,0.00,VWS V14.00,2013-07-29 08:55:00,
2013-07-29 03:58:00,53.5,51.8,29.93,NW,307,0.0,0.0,94,0.00,,---,0.00,VWS V14.00,2013-07-29 08:58:00,
2013-07-29 04:00:00,53.5,51.8,29.93,NW,308,0.0,0.0,94,0.00,,---,0.00,VWS V14.00,2013-07-29 09:00:00,
2013-07-29 04:03:00,53.6,52.2,29.93,NW,308,0.0,0.0,95,0.00,,---,0.00,VWS V14.00,2013-07-29 09:03:00,
2013-07-29 04:05:00,53.6,51.9,29.93,NW,308,0.0,0.0,94,0.00,,---,0.00,VWS V14.00,2013-07-29 09:05:00,
2013-07-29 04:08:00,53.6,51.9,29.94,NW,307,0.0,0.0,94,0.00,,---,0.00,VWS V14.00,2013-07-29 09:08:00,
2013-07-29 04:10:00,53.5,51.8,29.94,NW,307,0.0,0.0,94,0.00,,---,0.00,VWS V14.00,2013-07-29 09:10:00,
2013-07-29 04:13:00,53.5,51.8,29.94,NW,307,0.0,0.0,94,0.00,,---,0.00,VWS V14.00,2013-07-29 09:13:00,
2013-07-29 04:15:00,53.5,51.8,29.94,NW,307,0.0,0.0,94,0.00,,---,0.00,VWS V14.00,2013-07-29 09:15:00,
2013-07-29 04:18:00,53.4,51.7,29.94,NW,307,0.0,0.0,94,0.00,,---,0.00,VWS V14.00,2013-07-29 09:18:00,
2013-07-29 04:20:00,53.4,51.7,29.94,NW,308,0.0,0.0,94,0.00,,---,0.00,VWS V14.00,2013-07-29 09:20:00,
2013-07-29 04:23:00,53.3,51.6,29.94,NW,307,0.0,0.0,94,0.00,,---,0.00,VWS V14.00,2013-07-29 09:23:00,
2013-07-29 04:25:00,53.3,51.6,29.94,NW,308,0.0,0.0,94,0.00,,---,0.00,VWS V14.00,2013-07-29 09:25:00,
2013-07-29 04:28:00,53.2,51.5,29.94,NW,308,0.0,0.0,94,0.00,,---,0.00,VWS V14.00,2013-07-29 09:28:00,
2013-07-29 04:30:00,53.2,51.5,29.94,NW,307,0.0,0.0,94,0.00,,---,0.00,VWS V14.00,2013-07-29 09:30:00,
2013-07-29 04:33:00,53.1,51.7,29.94,NW,308,0.0,0.0,95,0.00,,---,0.00,VWS V14.00,2013-07-29 09:33:00,
2013-07-29 04:35:00,53.1,51.7,29.94,NW,307,0.0,0.0,95,0.00,,---,0.00,VWS V14.00,2013-07-29 09:35:00,
2013-07-29 04:38:00,52.9,51.2,29.94,NW,308,0.0,0.0,94,0.00,,---,0.00,VWS V14.00,2013-07-29 09:38:00,
2013-07-29 04:40:00,52.8,51.1,29.94,NW,308,0.0,0.0,94,0.00,,---,0.00,VWS V14.00,2013-07-29 09:40:00,
2013-07-29 04:43:00,52.7,51.0,29.94,NW,308,0.0,0.0,94,0.00,,---,0.00,VWS V14.00,2013-07-29 09:43:00,
2013-07-29 04:45:00,52.7,51.0,29.94,NW,308,0.0,0.0,94,0.00,,---,0.00,VWS V14.00,2013-07-29 09:45:00,
2013-07-29 04:48:00,52.6,50.9,29.94,NW,307,0.0,0.0,94,0.00,,---,0.00,VWS V14.00,2013-07-29 09:48:00,
2013-07-29 04:50:00,52.5,50.8,29.94,NW,307,0.0,0.0,94,0.00,,---,0.00,VWS V14.00,2013-07-29 09:50:00,
2013-07-29 04:53:00,52.4,51.0,29.94,NW,307,0.0,0.0,95,0.00,,---,0.00,VWS V14.00,2013-07-29 09:53:00,
2013-07-29 04:55:00,52.4,50.7,29.94,NW,308,0.0,0.0,94,0.00,,---,0.00,VWS V14.00,2013-07-29 09:55:00,
2013-07-29 04:58:00,52.3,50.6,29.94,NW,308,0.0,0.0,94,0.00,,---,0.00,VWS V14.00,2013-07-29 09:58:00,
2013-07-29 05:00:00,52.3,50.6,29.94,NW,308,0.0,0.0,94,0.00,,---,0.00,VWS V14.00,2013-07-29 10:00:00,
2013-07-29 05:03:00,52.1,50.4,29.94,NW,308,0.0,0.0,94,0.00,,---,0.00,VWS V14.00,2013-07-29 10:03:00,
2013-07-29 05:05:00,52.1,50.7,29.94,NW,307,0.0,0.0,95,0.00,,---,0.00,VWS V14.00,2013-07-29 10:05:00,
2013-07-29 05:08:00,52.1,50.7,29.94,NW,308,0.0,0.0,95,0.00,,---,0.00,VWS V14.00,2013-07-29 10:08:00,
2013-07-29 05:10:00,52.1,50.7,29.94,NW,307,0.0,0.0,95,0.00,,---,0.00,VWS V14.00,2013-07-29 10:10:00,
2013-07-29 05:13:00,52.2,50.8,29.94,NW,308,0.0,0.0,95,0.00,,---,0.00,VWS V14.00,2013-07-29 10:13:00,
2013-07-29 05:15:00,52.1,50.7,29.94,NW,308,0.0,0.0,95,0.00,,---,0.00,VWS V14.00,2013-07-29 10:15:00,
2013-07-29 05:18:00,52.3,50.9,29.95,NW,307,0.0,0.0,95,0.00,,---,0.00,VWS V14.00,2013-07-29 10:18:00,
2013-07-29 05:20:00,52.4,51.3,29.95,NW,308,0.0,0.0,96,0.00,,---,0.00,VWS V14.00,2013-07-29 10:20:00,
2013-07-29 05:23:00,52.7,51.6,29.95,NW,308,0.0,0.0,96,0.00,,---,0.00,VWS V14.00,2013-07-29 10:23:00,
2013-07-29 05:25:00,52.8,51.7,29.95,NW,308,0.0,0.0,96,0.00,,---,0.00,VWS V14.00,2013-07-29 10:25:00,
2013-07-29 05:28:00,52.9,51.8,29.95,NW,308,0.0,0.0,96,0.00,,---,0.00,VWS V14.00,2013-07-29 10:28:00,
2013-07-29 05:30:00,52.9,51.8,29.95,NW,307,0.0,0.0,96,0.00,,---,0.00,VWS V14.00,2013-07-29 10:30:00,
2013-07-29 05:33:00,52.8,51.4,29.95,NW,308,0.0,0.0,95,0.00,,---,0.00,VWS V14.00,2013-07-29 10:33:00,
2013-07-29 05:35:00,52.7,51.3,29.95,NW,308,0.0,0.0,95,0.00,,---,0.00,VWS V14.00,2013-07-29 10:35:00,
2013-07-29 05:38:00,52.4,51.0,29.96,NW,308,0.0,0.0,95,0.00,,---,0.00,VWS V14.00,2013-07-29 10:38:00,
2013-07-29 05:40:00,52.4,51.0,29.96,NW,307,0.0,0.0,95,0.00,,---,0.00,VWS V14.00,2013-07-29 10:40:00,
2013-07-29 05:43:00,52.3,50.9,29.96,NW,307,0.0,0.0,95,0.00,,---,0.00,VWS V14.00,2013-07-29 10:43:00,
2013-07-29 05:45:00,52.3,50.9,29.96,NW,307,0.0,0.0,95,0.00,,---,0.00,VWS V14.00,2013-07-29 10:45:00,
2013-07-29 05:48:00,52.3,50.9,29.96,NW,307,0.0,0.0,95,0.00,,---,0.00,VWS V14.00,2013-07-29 10:48:00,
2013-07-29 05:50:00,52.2,50.8,29.96,NW,307,0.0,0.0,95,0.00,,---,0.00,VWS V14.00,2013-07-29 10:50:00,
2013-07-29 05:53:00,52.2,50.8,29.96,NW,308,0.0,0.0,95,0.00,,---,0.00,VWS V14.00,2013-07-29 10:53:00,
2013-07-29 05:55:00,52.1,51.0,29.96,NW,308,0.0,0.0,96,0.00,,---,0.00,VWS V14.00,2013-07-29 10:55:00,
2013-07-29 05:58:00,52.2,51.1,29.96,WSW,246,0.0,0.0,96,0.00,,---,0.00,VWS V14.00,2013-07-29 10:58:00,
2013-07-29 06:00:00,52.2,51.1,29.96,WSW,246,0.0,0.0,96,0.00,,---,0.00,VWS V14.00,2013-07-29 11:00:00,
2013-07-29 06:03:00,52.4,51.3,29.96,WSW,246,0.0,0.0,96,0.00,,---,0.00,VWS V14.00,2013-07-29 11:03:00,
2013-07-29 06:05:00,52.4,51.3,29.96,WSW,246,0.0,0.0,96,0.00,,---,0.00,VWS V14.00,2013-07-29 11:05:00,
2013-07-29 06:08:00,52.6,51.5,29.97,WSW,246,0.0,0.0,96,0.00,,---,0.00,VWS V14.00,2013-07-29 11:08:00,
2013-07-29 06:10:00,52.6,51.5,29.97,WSW,246,0.0,0.0,96,0.00,,---,0.00,VWS V14.00,2013-07-29 11:10:00,
2013-07-29 06:14:00,52.8,51.7,29.97,WSW,246,0.0,0.0,96,0.00,,---,0.00,VWS V14.00,2013-07-29 11:14:00,
2013-07-29 06:15:00,52.8,51.7,29.97,WSW,246,0.0,0.0,96,0.00,,---,0.00,VWS V14.00,2013-07-29 11:15:00,
2013-07-29 06:19:00,53.1,52.0,29.97,WSW,246,0.0,0.0,96,0.00,,---,0.00,VWS V14.00,2013-07-29 11:19:00,
2013-07-29 06:20:00,53.1,52.0,29.97,WSW,246,0.0,0.0,96,0.00,,---,0.00,VWS V14.00,2013-07-29 11:20:00,
2013-07-29 06:24:00,53.3,52.2,29.97,WSW,246,0.0,0.0,96,0.00,,---,0.00,VWS V14.00,2013-07-29 11:24:00,
2013-07-29 06:25:00,53.3,52.2,29.97,WSW,246,0.0,0.0,96,0.00,,---,0.00,VWS V14.00,2013-07-29 11:25:00,
2013-07-29 06:29:00,53.4,52.3,29.97,WSW,246,0.0,0.0,96,0.00,,---,0.00,VWS V14.00,2013-07-29 11:29:00,
2013-07-29 06:30:00,53.4,52.3,29.97,WSW,246,0.0,0.0,96,0.00,,---,0.00,VWS V14.00,2013-07-29 11:30:00,
2013-07-29 06:34:00,53.4,52.3,29.97,WSW,246,0.0,0.0,96,0.00,,---,0.00,VWS V14.00,2013-07-29 11:34:00,
2013-07-29 06:35:00,53.4,52.3,29.97,WSW,246,0.0,0.0,96,0.00,,---,0.00,VWS V14.00,2013-07-29 11:35:00,
2013-07-29 06:39:00,53.8,52.7,29.96,WSW,246,0.0,0.0,96,0.00,,---,0.00,VWS V14.00,2013-07-29 11:39:00,
2013-07-29 06:40:00,53.8,52.7,29.96,WSW,246,0.0,0.0,96,0.00,,---,0.00,VWS V14.00,2013-07-29 11:40:00,
2013-07-29 06:44:00,54.1,52.7,29.97,WSW,246,0.0,0.0,95,0.00,,---,0.00,VWS V14.00,2013-07-29 11:44:00,
2013-07-29 06:45:00,54.1,52.7,29.97,WSW,246,0.0,0.0,95,0.00,,---,0.00,VWS V14.00,2013-07-29 11:45:00,
2013-07-29 06:49:00,54.7,53.6,29.97,WSW,246,0.0,0.0,96,0.00,,---,0.00,VWS V14.00,2013-07-29 11:49:00,
2013-07-29 06:50:00,54.7,53.6,29.97,WSW,246,0.0,0.0,96,0.00,,---,0.00,VWS V14.00,2013-07-29 11:50:00,
2013-07-29 06:54:00,55.5,54.4,29.98,North,351,0.0,0.0,96,0.00,,---,0.00,VWS V14.00,2013-07-29 11:54:00,
2013-07-29 06:55:00,55.5,54.1,29.98,NNW,342,0.0,0.0,95,0.00,,---,0.00,VWS V14.00,2013-07-29 11:55:00,
2013-07-29 06:59:00,56.0,54.3,29.98,NNE,12,0.0,4.0,94,0.00,,---,0.00,VWS V14.00,2013-07-29 11:59:00,
2013-07-29 07:00:00,56.0,54.3,29.98,NNE,12,0.0,4.0,94,0.00,,---,0.00,VWS V14.00,2013-07-29 12:00:00,
2013-07-29 07:04:00,56.4,54.4,29.98,North,11,0.0,1.0,93,0.00,,---,0.00,VWS V14.00,2013-07-29 12:04:00,
2013-07-29 07:05:00,56.4,54.4,29.98,NNE,12,0.0,1.0,93,0.00,,---,0.00,VWS V14.00,2013-07-29 12:05:00,
2013-07-29 07:09:00,56.7,54.7,29.98,NNE,12,0.0,1.0,93,0.00,,---,0.00,VWS V14.00,2013-07-29 12:09:00,
2013-07-29 07:10:00,56.7,54.7,29.98,NNE,12,0.0,1.0,93,0.00,,---,0.00,VWS V14.00,2013-07-29 12:10:00,
2013-07-29 07:14:00,57.3,55.0,29.98,North,11,0.0,0.0,92,0.00,,---,0.00,VWS V14.00,2013-07-29 12:14:00,
2013-07-29 07:15:00,57.3,55.0,29.98,North,11,0.0,0.0,92,0.00,,---,0.00,VWS V14.00,2013-07-29 12:15:00,
2013-07-29 07:19:00,57.7,55.1,29.98,North,11,0.0,0.0,91,0.00,,---,0.00,VWS V14.00,2013-07-29 12:19:00,
2013-07-29 07:20:00,57.7,55.1,29.98,North,11,0.0,1.0,91,0.00,,---,0.00,VWS V14.00,2013-07-29 12:20:00,
2013-07-29 07:24:00,58.3,55.1,29.98,North,11,0.0,1.0,89,0.00,,---,0.00,VWS V14.00,2013-07-29 12:24:00,
2013-07-29 07:25:00,58.3,55.1,29.98,North,11,0.0,1.0,89,0.00,,---,0.00,VWS V14.00,2013-07-29 12:25:00,
2013-07-29 07:29:00,58.7,55.2,29.99,ESE,105,0.0,1.0,88,0.00,,---,0.00,VWS V14.00,2013-07-29 12:29:00,
2013-07-29 07:30:00,58.7,55.2,29.99,ESE,105,0.0,1.0,88,0.00,,---,0.00,VWS V14.00,2013-07-29 12:30:00,
2013-07-29 07:34:00,59.4,55.8,29.99,NNW,329,2.0,4.0,88,0.00,,---,0.00,VWS V14.00,2013-07-29 12:34:00,
2013-07-29 07:35:00,59.4,55.8,29.99,NNW,329,2.0,4.0,88,0.00,,---,0.00,VWS V14.00,2013-07-29 12:35:00,
2013-07-29 07:39:00,59.6,55.4,29.99,NNW,329,0.0,3.0,86,0.00,,---,0.00,VWS V14.00,2013-07-29 12:39:00,
2013-07-29 07:40:00,59.6,55.4,29.99,NNW,329,0.0,3.0,86,0.00,,---,0.00,VWS V14.00,2013-07-29 12:40:00,
2013-07-29 07:44:00,60.0,55.8,29.99,NNW,329,0.0,1.0,86,0.00,,---,0.00,VWS V14.00,2013-07-29 12:44:00,
2013-07-29 07:45:00,60.0,55.8,29.99,NNW,329,0.0,1.0,86,0.00,,---,0.00,VWS V14.00,2013-07-29 12:45:00,
2013-07-29 07:49:00,60.4,55.5,29.99,ENE,74,0.0,0.0,84,0.00,,---,0.00,VWS V14.00,2013-07-29 12:49:00,
2013-07-29 07:50:00,60.4,55.5,29.99,ENE,74,0.0,1.0,84,0.00,,---,0.00,VWS V14.00,2013-07-29 12:50:00,
2013-07-29 07:54:00,60.2,54.7,29.99,NW,306,0.0,6.0,82,0.00,,---,0.00,VWS V14.00,2013-07-29 12:54:00,
2013-07-29 07:55:00,60.2,54.7,29.99,NW,306,6.0,6.0,82,0.00,,---,0.00,VWS V14.00,2013-07-29 12:55:00,
2013-07-29 07:59:00,60.0,54.5,30.00,North,349,2.0,6.0,82,0.00,,---,0.00,VWS V14.00,2013-07-29 12:59:00,
2013-07-29 08:00:00,60.1,54.6,30.00,North,349,2.0,6.0,82,0.00,,---,0.00,VWS V14.00,2013-07-29 13:00:00,
2013-07-29 08:05:00,60.3,55.1,30.00,NNE,22,1.0,3.0,83,0.00,,---,0.00,VWS V14.00,2013-07-29 13:05:00,
2013-07-29 08:10:00,60.4,54.9,30.00,North,10,4.0,7.0,82,0.00,,---,0.00,VWS V14.00,2013-07-29 13:10:00,
2013-07-29 08:15:00,60.6,54.8,30.00,NW,315,5.0,6.0,81,0.00,,---,0.00,VWS V14.00,2013-07-29 13:15:00,
2013-07-29 08:20:00,60.8,54.9,30.00,NW,313,0.0,2.0,81,0.00,,---,0.00,VWS V14.00,2013-07-29 13:20:00,
2013-07-29 08:25:00,61.2,55.0,30.00,NNW,329,0.0,1.0,80,0.00,,---,0.00,VWS V14.00,2013-07-29 13:25:00,
2013-07-29 08:30:00,61.5,54.6,30.00,NE,38,0.0,4.0,78,0.00,,---,0.00,VWS V14.00,2013-07-29 13:30:00,
2013-07-29 08:35:00,61.7,55.1,30.00,NW,325,5.0,6.0,79,0.00,,---,0.00,VWS V14.00,2013-07-29 13:35:00,
2013-07-29 08:40:00,61.6,55.0,30.00,NNE,32,2.0,3.0,79,0.00,,---,0.00,VWS V14.00,2013-07-29 13:40:00,
2013-07-29 08:45:00,61.6,54.7,30.00,NNW,341,0.0,5.0,78,0.00,,---,0.00,VWS V14.00,2013-07-29 13:45:00,
2013-07-29 08:46:00,61.8,55.6,30.00,NNW,341,0.0,0.0,80,0.00,,---,0.00,VWS V14.00,2013-07-29 13:46:00,
2013-07-29 08:50:00,61.9,55.0,30.00,NNW,332,0.0,6.0,78,0.00,,---,0.00,VWS V14.00,2013-07-29 13:50:00,
2013-07-29 08:51:00,62.0,54.7,30.00,NNW,331,0.0,3.0,77,0.00,,---,0.00,VWS V14.00,2013-07-29 13:51:00,
2013-07-29 08:55:00,62.0,54.7,30.01,North,355,3.0,7.0,77,0.00,,---,0.00,VWS V14.00,2013-07-29 13:55:00,
2013-07-29 08:56:00,61.9,54.6,30.01,NNW,337,0.0,3.0,77,0.00,,---,0.00,VWS V14.00,2013-07-29 13:56:00,
2013-07-29 09:00:00,61.9,54.6,30.01,NNW,339,0.0,6.0,77,0.00,,---,0.00,VWS V14.00,2013-07-29 14:00:00,
2013-07-29 09:01:00,62.0,55.1,30.01,NNW,339,0.0,1.0,78,0.00,,---,0.00,VWS V14.00,2013-07-29 14:01:00,
2013-07-29 09:05:00,62.2,55.3,30.01,NNW,341,0.0,2.0,78,0.00,,---,0.00,VWS V14.00,2013-07-29 14:05:00,
2013-07-29 09:07:00,62.4,55.1,30.01,NE,55,1.0,1.0,77,0.00,,---,0.00,VWS V14.00,2013-07-29 14:07:00,
2013-07-29 09:10:00,62.1,54.1,30.01,NE,56,0.0,6.0,75,0.00,,---,0.00,VWS V14.00,2013-07-29 14:10:00,
2013-07-29 09:12:00,62.0,54.7,30.01,NNW,340,4.0,5.0,77,0.00,,---,0.00,VWS V14.00,2013-07-29 14:12:00,
2013-07-29 09:15:00,62.1,55.2,30.01,NNW,340,0.0,5.0,78,0.00,,---,0.00,VWS V14.00,2013-07-29 14:15:00,
2013-07-29 09:17:00,62.3,55.0,30.01,NNW,340,0.0,2.0,77,0.00,,---,0.00,VWS V14.00,2013-07-29 14:17:00,
2013-07-29 09:20:00,62.6,55.7,30.01,NNW,341,1.0,2.0,78,0.00,,---,0.00,VWS V14.00,2013-07-29 14:20:00,
2013-07-29 09:22:00,63.1,55.8,30.01,SSE,154,0.0,3.0,77,0.00,,---,0.00,VWS V14.00,2013-07-29 14:22:00,
2013-07-29 09:25:00,63.2,55.5,30.01,NNW,348,2.0,6.0,76,0.00,,---,0.00,VWS V14.00,2013-07-29 14:25:00,
2013-07-29 09:28:00,63.1,55.4,30.01,NNW,334,0.0,4.0,76,0.00,,---,0.00,VWS V14.00,2013-07-29 14:28:00,
2013-07-29 09:30:00,63.2,55.5,30.01,NNW,337,3.0,4.0,76,0.00,,---,0.00,VWS V14.00,2013-07-29 14:30:00,
2013-07-29 09:33:00,63.3,55.6,30.01,NNW,341,0.0,5.0,76,0.00,,---,0.00,VWS V14.00,2013-07-29 14:33:00,
2013-07-29 09:35:00,63.3,55.2,30.01,NNW,341,0.0,5.0,75,0.00,,---,0.00,VWS V14.00,2013-07-29 14:35:00,
2013-07-29 09:38:00,63.7,56.0,30.01,NNW,331,0.0,2.0,76,0.00,,---,0.00,VWS V14.00,2013-07-29 14:38:00,
2013-07-29 09:40:00,63.8,55.7,30.01,NNW,331,0.0,2.0,75,0.00,,---,0.00,VWS V14.00,2013-07-29 14:40:00,
2013-07-29 09:43:00,64.1,56.0,30.01,NW,319,0.0,5.0,75,0.00,,---,0.00,VWS V14.00,2013-07-29 14:43:00,
2013-07-29 09:45:00,64.3,56.6,30.01,NW,319,0.0,5.0,76,0.00,,---,0.00,VWS V14.00,2013-07-29 14:45:00,
2013-07-29 09:48:00,64.3,55.5,30.01,NW,324,0.0,6.0,73,0.00,,---,0.00,VWS V14.00,2013-07-29 14:48:00,
2013-07-29 09:50:00,64.2,55.0,30.01,NW,323,0.0,6.0,72,0.00,,---,0.00,VWS V14.00,2013-07-29 14:50:00,
2013-07-29 09:53:00,63.9,55.5,30.01,NE,50,0.0,2.0,74,0.00,,---,0.00,VWS V14.00,2013-07-29 14:53:00,
2013-07-29 09:55:00,64.0,55.6,30.01,NE,42,0.0,2.0,74,0.00,,---,0.00,VWS V14.00,2013-07-29 14:55:00,
2013-07-29 09:58:00,64.2,56.1,30.01,North,350,2.0,6.0,75,0.00,,---,0.00,VWS V14.00,2013-07-29 14:58:00,
2013-07-29 10:00:00,64.2,55.8,30.01,NW,312,0.0,6.0,74,0.00,,---,0.00,VWS V14.00,2013-07-29 15:00:00,
2013-07-29 10:04:00,64.5,55.7,30.01,NNW,331,0.0,4.0,73,0.00,,---,0.00,VWS V14.00,2013-07-29 15:04:00,
2013-07-29 10:05:00,64.5,55.3,30.01,NNW,330,0.0,4.0,72,0.00,,---,0.00,VWS V14.00,2013-07-29 15:05:00,
2013-07-29 10:09:00,65.0,56.2,30.01,North,355,0.0,6.0,73,0.00,,---,0.00,VWS V14.00,2013-07-29 15:09:00,
2013-07-29 10:10:00,65.1,56.6,30.01,North,355,0.0,6.0,74,0.00,,---,0.00,VWS V14.00,2013-07-29 15:10:00,
2013-07-29 10:14:00,65.2,55.6,30.02,NNE,18,0.0,6.0,71,0.00,,---,0.00,VWS V14.00,2013-07-29 15:14:00,
2013-07-29 10:15:00,65.2,56.3,30.02,NNE,18,0.0,6.0,73,0.00,,---,0.00,VWS V14.00,2013-07-29 15:15:00,
2013-07-29 10:19:00,65.2,56.3,30.02,SSW,208,0.0,3.0,73,0.00,,---,0.00,VWS V14.00,2013-07-29 15:19:00,
2013-07-29 10:20:00,65.2,56.3,30.02,West,268,0.0,3.0,73,0.00,,---,0.00,VWS V14.00,2013-07-29 15:20:00,
2013-07-29 10:24:00,65.5,56.6,30.02,NNW,341,0.0,5.0,73,0.00,,---,0.00,VWS V14.00,2013-07-29 15:24:00,
2013-07-29 10:25:00,65.5,56.6,30.02,NNW,341,0.0,5.0,73,0.00,,---,0.00,VWS V14.00,2013-07-29 15:25:00,
2013-07-29 10:29:00,65.5,55.9,30.02,NNW,343,0.0,4.0,71,0.00,,---,0.00,VWS V14.00,2013-07-29 15:29:00,
2013-07-29 10:30:00,65.5,56.2,30.02,NW,325,5.0,5.0,72,0.00,,---,0.00,VWS V14.00,2013-07-29 15:30:00,
2013-07-29 10:34:00,65.2,56.0,30.02,WNW,303,0.0,9.0,72,0.00,,---,0.00,VWS V14.00,2013-07-29 15:34:00,
2013-07-29 10:35:00,65.2,56.0,30.02,NW,306,1.0,9.0,72,0.00,,---,0.00,VWS V14.00,2013-07-29 15:35:00,
2013-07-29 10:39:00,65.3,56.4,30.02,NW,309,0.0,2.0,73,0.00,,---,0.00,VWS V14.00,2013-07-29 15:39:00,
2013-07-29 10:40:00,65.3,56.4,30.02,NW,309,0.0,2.0,73,0.00,,---,0.00,VWS V14.00,2013-07-29 15:40:00,
2013-07-29 10:44:00,65.3,56.8,30.02,North,360,7.0,7.0,74,0.00,,---,0.00,VWS V14.00,2013-07-29 15:44:00,
2013-07-29 10:45:00,65.3,56.8,30.02,North,360,7.0,7.0,74,0.00,,---,0.00,VWS V14.00,2013-07-29 15:45:00,
2013-07-29 10:49:00,65.4,56.5,30.02,NW,322,0.0,0.0,73,0.00,,---,0.00,VWS V14.00,2013-07-29 15:49:00,
2013-07-29 10:50:00,65.4,56.5,30.02,NW,322,0.0,7.0,73,0.00,,---,0.00,VWS V14.00,2013-07-29 15:50:00,
2013-07-29 10:54:00,65.7,57.6,30.02,NW,319,0.0,0.0,75,0.00,,---,0.00,VWS V14.00,2013-07-29 15:54:00,
2013-07-29 10:55:00,65.6,56.3,30.02,NW,319,0.0,4.0,72,0.00,,---,0.00,VWS V14.00,2013-07-29 15:55:00,
2013-07-29 11:00:00,66.1,57.2,30.02,NW,306,0.0,0.0,73,0.00,,---,0.00,VWS V14.00,2013-07-29 16:00:00,
2013-07-29 11:05:00,66.3,57.4,30.02,NNW,340,0.0,1.0,73,0.00,,---,0.00,VWS V14.00,2013-07-29 16:05:00,
2013-07-29 11:10:00,66.1,57.2,30.02,NE,41,0.0,0.0,73,0.00,,---,0.00,VWS V14.00,2013-07-29 16:10:00,
2013-07-29 11:15:00,66.2,56.9,30.02,ENE,57,0.0,0.0,72,0.00,,---,0.00,VWS V14.00,2013-07-29 16:15:00,
2013-07-29 11:20:00,66.4,57.9,30.03,SW,233,0.0,4.0,74,0.00,,---,0.00,VWS V14.00,2013-07-29 16:20:00,
2013-07-29 11:25:00,66.4,57.5,30.02,NW,306,0.0,0.0,73,0.00,,---,0.00,VWS V14.00,2013-07-29 16:25:00,
2013-07-29 11:30:00,66.7,57.8,30.02,WSW,258,0.0,1.0,73,0.00,,---,0.00,VWS V14.00,2013-07-29 16:30:00,
2013-07-29 11:35:00,67.0,57.7,30.02,NNW,346,0.0,1.0,72,0.00,,---,0.00,VWS V14.00,2013-07-29 16:35:00,
2013-07-29 11:40:00,67.2,58.3,30.02,ENE,71,0.0,0.0,73,0.00,,---,0.00,VWS V14.00,2013-07-29 16:40:00,
2013-07-29 11:45:00,67.7,58.7,30.02,NW,318,0.0,0.0,73,0.00,,---,0.00,VWS V14.00,2013-07-29 16:45:00,
2013-07-29 11:50:00,68.1,57.2,30.02,NNW,336,0.0,1.0,68,0.00,,---,0.00,VWS V14.00,2013-07-29 16:50:00,
2013-07-29 11:55:00,68.0,57.9,30.02,North,350,0.0,0.0,70,0.00,,---,0.00,VWS V14.00,2013-07-29 16:55:00,
2013-07-29 12:00:00,68.0,58.3,30.02,North,355,0.0,3.0,71,0.00,,---,0.00,VWS V14.00,2013-07-29 17:00:00,
2013-07-29 12:05:00,68.0,57.5,30.01,East,84,0.0,0.0,69,0.00,,---,0.00,VWS V14.00,2013-07-29 17:05:00,
2013-07-29 12:10:00,68.5,59.5,30.01,East,84,0.0,1.0,73,0.00,,---,0.00,VWS V14.00,2013-07-29 17:10:00,
2013-07-29 12:11:00,68.6,58.8,30.01,NNE,25,2.0,5.0,71,0.00,,---,0.00,VWS V14.00,2013-07-29 17:11:00,
2013-07-29 12:15:00,68.6,58.8,30.01,NNW,331,0.0,5.0,71,0.00,,---,0.00,VWS V14.00,2013-07-29 17:15:00,
2013-07-29 12:16:00,68.7,58.9,30.01,NW,321,3.0,5.0,71,0.00,,---,0.00,VWS V14.00,2013-07-29 17:16:00,
2013-07-29 12:20:00,68.8,58.6,30.01,NNW,340,3.0,7.0,70,0.00,,---,0.00,VWS V14.00,2013-07-29 17:20:00,
2013-07-29 12:21:00,68.7,58.5,30.02,NE,51,2.0,3.0,70,0.00,,---,0.00,VWS V14.00,2013-07-29 17:21:00,
2013-07-29 12:25:00,68.8,59.4,30.02,ENE,69,0.0,5.0,72,0.00,,---,0.00,VWS V14.00,2013-07-29 17:25:00,
2013-07-29 12:26:00,69.0,58.8,30.02,North,360,5.0,6.0,70,0.00,,---,0.00,VWS V14.00,2013-07-29 17:26:00,
2013-07-29 12:30:00,68.9,58.3,30.02,North,9,1.0,6.0,69,0.00,,---,0.00,VWS V14.00,2013-07-29 17:30:00,
2013-07-29 12:32:00,68.6,58.0,30.02,NE,35,0.0,3.0,69,0.00,,---,0.00,VWS V14.00,2013-07-29 17:32:00,
2013-07-29 12:35:00,68.2,57.7,30.02,North,360,0.0,3.0,69,0.00,,---,0.00,VWS V14.00,2013-07-29 17:35:00,
2013-07-29 12:37:00,68.2,58.8,30.02,West,259,0.0,2.0,72,0.00,,---,0.00,VWS V14.00,2013-07-29 17:37:00,
2013-07-29 12:40:00,68.3,57.8,30.02,NNW,346,1.0,3.0,69,0.00,,---,0.00,VWS V14.00,2013-07-29 17:40:00,
2013-07-29 12:42:00,68.5,58.7,30.02,North,5,3.0,6.0,71,0.00,,---,0.00,VWS V14.00,2013-07-29 17:42:00,
2013-07-29 12:45:00,68.8,57.8,30.01,NNE,13,0.0,6.0,68,0.00,,---,0.00,VWS V14.00,2013-07-29 17:45:00,
2013-07-29 12:47:00,69.2,58.2,30.01,SW,226,0.0,1.0,68,0.00,,---,0.00,VWS V14.00,2013-07-29 17:47:00,
2013-07-29 12:50:00,69.7,59.9,30.02,WNW,300,3.0,3.0,71,0.00,,---,0.00,VWS V14.00,2013-07-29 17:50:00,
2013-07-29 12:52:00,69.8,59.6,30.02,North,360,1.0,4.0,70,0.00,,---,0.00,VWS V14.00,2013-07-29 17:52:00,
2013-07-29 12:55:00,69.9,59.3,30.02,NE,41,0.0,4.0,69,0.00,,---,0.00,VWS V14.00,2013-07-29 17:55:00,
2013-07-29 12:57:00,70.1,59.1,30.02,NE,40,1.0,5.0,68,0.00,,---,0.00,VWS V14.00,2013-07-29 17:57:00,
2013-07-29 13:00:00,70.3,58.8,30.02,NE,40,0.0,5.0,67,0.00,,---,0.00,VWS V14.00,2013-07-29 18:00:00,
2013-07-29 13:02:00,70.3,58.0,30.02,NE,40,0.0,4.0,65,0.00,,---,0.00,VWS V14.00,2013-07-29 18:02:00,
2013-07-29 13:05:00,70.2,58.7,30.02,NE,40,0.0,4.0,67,0.00,,---,0.00,VWS V14.00,2013-07-29 18:05:00,
2013-07-29 13:07:00,70.1,59.1,30.02,NW,323,0.0,4.0,68,0.00,,---,0.00,VWS V14.00,2013-07-29 18:07:00,
2013-07-29 13:10:00,69.8,57.9,30.02,NW,323,0.0,4.0,66,0.00,,---,0.00,VWS V14.00,2013-07-29 18:10:00,
2013-07-29 13:12:00,69.8,59.6,30.02,ENE,60,4.0,4.0,70,0.00,,---,0.00,VWS V14.00,2013-07-29 18:12:00,
2013-07-29 13:15:00,70.0,59.0,30.01,NNE,13,0.0,4.0,68,0.00,,---,0.00,VWS V14.00,2013-07-29 18:15:00,
2013-07-29 13:17:00,70.4,60.6,30.02,NNE,28,3.0,4.0,71,0.00,,---,0.00,VWS V14.00,2013-07-29 18:17:00,
2013-07-29 13:20:00,70.5,59.4,30.02,NNE,32,5.0,6.0,68,0.00,,---,0.00,VWS V14.00,2013-07-29 18:20:00,
2013-07-29 13:22:00,70.1,58.7,30.02,NNW,339,0.0,6.0,67,0.00,,---,0.00,VWS V14.00,2013-07-29 18:22:00,
2013-07-29 13:25:00,70.1,59.1,30.02,North,355,0.0,6.0,68,0.00,,---,0.00,VWS V14.00,2013-07-29 18:25:00,
2013-07-29 13:27:00,70.2,59.6,30.02,North,355,0.0,1.0,69,0.00,,---,0.00,VWS V14.00,2013-07-29 18:27:00,
2013-07-29 13:30:00,70.2,58.3,30.02,WNW,302,0.0,5.0,66,0.00,,---,0.00,VWS V14.00,2013-07-29 18:30:00,
2013-07-29 13:32:00,70.2,57.9,30.02,WNW,290,0.0,4.0,65,0.00,,---,0.00,VWS V14.00,2013-07-29 18:32:00,
2013-07-29 13:35:00,70.2,57.5,30.02,NW,305,3.0,4.0,64,0.00,,---,0.00,VWS V14.00,2013-07-29 18:35:00,
2013-07-29 13:37:00,70.3,58.4,30.02,NW,309,2.0,6.0,66,0.00,,---,0.00,VWS V14.00,2013-07-29 18:37:00,
2013-07-29 13:40:00,70.4,58.5,30.02,North,360,2.0,6.0,66,0.00,,---,0.00,VWS V14.00,2013-07-29 18:40:00,
2013-07-29 13:42:00,70.4,58.1,30.01,North,5,0.0,3.0,65,0.00,,---,0.00,VWS V14.00,2013-07-29 18:42:00,
2013-07-29 13:45:00,70.4,58.5,30.01,SW,230,0.0,3.0,66,0.00,,---,0.00,VWS V14.00,2013-07-29 18:45:00,
2013-07-29 13:47:00,70.7,60.0,30.01,WSW,257,0.0,1.0,69,0.00,,---,0.00,VWS V14.00,2013-07-29 18:47:00,
2013-07-29 13:50:00,70.8,58.9,30.01,WSW,254,0.0,4.0,66,0.00,,---,0.00,VWS V14.00,2013-07-29 18:50:00,
2013-07-29 13:52:00,71.1,58.8,30.01,WSW,250,0.0,4.0,65,0.00,,---,0.00,VWS V14.00,2013-07-29 18:52:00,
2013-07-29 13:55:00,71.4,60.3,30.01,South,178,1.0,4.0,68,0.00,,---,0.00,VWS V14.00,2013-07-29 18:55:00,
2013-07-29 13:58:00,71.6,61.3,30.01,South,188,0.0,3.0,70,0.00,,---,0.00,VWS V14.00,2013-07-29 18:58:00,
2013-07-29 14:00:00,71.7,58.9,30.01,South,188,0.0,3.0,64,0.00,,---,0.00,VWS V14.00,2013-07-29 19:00:00,
2013-07-29 14:03:00,71.9,59.5,30.01,West,271,0.0,3.0,65,0.00,,---,0.00,VWS V14.00,2013-07-29 19:03:00,
2013-07-29 14:05:00,72.0,60.5,30.01,NW,311,3.0,4.0,67,0.00,,---,0.00,VWS V14.00,2013-07-29 19:05:00,
2013-07-29 14:08:00,72.1,59.7,30.01,WNW,303,0.0,3.0,65,0.00,,---,0.00,VWS V14.00,2013-07-29 19:08:00,
2013-07-29 14:10:00,72.1,59.7,30.01,WNW,303,2.0,3.0,65,0.00,,---,0.00,VWS V14.00,2013-07-29 19:10:00,
2013-07-29 14:13:00,72.3,59.9,30.00,NE,54,0.0,4.0,65,0.00,,---,0.00,VWS V14.00,2013-07-29 19:13:00,
2013-07-29 14:15:00,72.3,59.0,30.00,NE,52,0.0,4.0,63,0.00,,---,0.00,VWS V14.00,2013-07-29 19:15:00,
2013-07-29 14:18:00,72.5,59.6,30.00,NE,34,1.0,5.0,64,0.00,,---,0.00,VWS V14.00,2013-07-29 19:18:00,
2013-07-29 14:20:00,72.4,58.2,30.00,North,10,0.0,5.0,61,0.00,,---,0.00,VWS V14.00,2013-07-29 19:20:00,
2013-07-29 14:23:00,72.3,59.5,30.00,North,10,0.0,1.0,64,0.00,,---,0.00,VWS V14.00,2013-07-29 19:23:00,
2013-07-29 14:25:00,72.4,60.0,30.00,North,10,0.0,1.0,65,0.00,,---,0.00,VWS V14.00,2013-07-29 19:25:00,
2013-07-29 14:28:00,72.7,59.8,30.00,WNW,292,0.0,5.0,64,0.00,,---,0.00,VWS V14.00,2013-07-29 19:28:00,
2013-07-29 14:30:00,72.8,60.4,30.00,NW,306,0.0,5.0,65,0.00,,---,0.00,VWS V14.00,2013-07-29 19:30:00,
2013-07-29 14:33:00,72.9,59.6,30.00,West,260,0.0,5.0,63,0.00,,---,0.00,VWS V14.00,2013-07-29 19:33:00,
2013-07-29 14:35:00,72.9,59.6,30.00,South,178,0.0,5.0,63,0.00,,---,0.00,VWS V14.00,2013-07-29 19:35:00,
2013-07-29 14:39:00,72.8,60.4,30.00,ESE,122,0.0,5.0,65,0.00,,---,0.00,VWS V14.00,2013-07-29 19:39:00,
2013-07-29 14:40:00,72.8,60.4,30.00,ENE,67,0.0,5.0,65,0.00,,---,0.00,VWS V14.00,2013-07-29 19:40:00,
2013-07-29 14:44:00,73.1,60.2,30.00,ESE,117,3.0,4.0,64,0.00,,---,0.00,VWS V14.00,2013-07-29 19:44:00,
2013-07-29 14:45:00,73.1,60.2,30.00,SSW,203,0.0,4.0,64,0.00,,---,0.00,VWS V14.00,2013-07-29 19:45:00,
2013-07-29 14:49:00,73.5,60.6,30.00,SSE,153,0.0,3.0,64,0.00,,---,0.00,VWS V14.00,2013-07-29 19:49:00,
2013-07-29 14:50:00,73.5,60.6,30.00,NNW,340,5.0,5.0,64,0.00,,---,0.00,VWS V14.00,2013-07-29 19:50:00,
2013-07-29 14:54:00,73.7,59.4,30.00,SW,228,3.0,6.0,61,0.00,,---,0.00,VWS V14.00,2013-07-29 19:54:00,
2013-07-29 14:55:00,73.7,59.4,30.00,NNE,27,3.0,6.0,61,0.00,,---,0.00,VWS V14.00,2013-07-29 19:55:00,
2013-07-29 14:59:00,73.2,59.9,30.00,ENE,73,0.0,4.0,63,0.00,,---,0.00,VWS V14.00,2013-07-29 19:59:00,
2013-07-29 15:00:00,73.2,59.9,30.00,ENE,73,0.0,4.0,63,0.00,,---,0.00,VWS V14.00,2013-07-29 20:00:00,
2013-07-29 15:04:00,72.8,59.5,30.00,NE,34,1.0,1.0,63,0.00,,---,0.00,VWS V14.00,2013-07-29 20:04:00,
2013-07-29 15:05:00,72.8,59.5,30.00,NNE,33,0.0,2.0,63,0.00,,---,0.00,VWS V14.00,2013-07-29 20:05:00,
2013-07-29 15:09:00,72.8,59.5,30.00,North,5,2.0,2.0,63,0.00,,---,0.00,VWS V14.00,2013-07-29 20:09:00,
2013-07-29 15:10:00,72.8,59.5,30.00,North,5,2.0,5.0,63,0.00,,---,0.00,VWS V14.00,2013-07-29 20:10:00,
2013-07-29 15:14:00,73.0,57.8,30.00,North,360,0.0,4.0,59,0.00,,---,0.00,VWS V14.00,2013-07-29 20:14:00,
2013-07-29 15:15:00,73.0,57.8,30.00,North,360,0.0,4.0,59,0.00,,---,0.00,VWS V14.00,2013-07-29 20:15:00,
2013-07-29 15:20:00,73.3,59.0,30.00,NNW,329,0.0,2.0,61,0.00,,---,0.00,VWS V14.00,2013-07-29 20:20:00,
2013-07-29 15:25:00,73.2,59.0,30.00,NNW,329,0.0,0.0,61,0.00,,---,0.00,VWS V14.00,2013-07-29 20:25:00,
2013-07-29 15:30:00,73.0,58.8,30.00,NNW,346,0.0,0.0,61,0.00,,---,0.00,VWS V14.00,2013-07-29 20:30:00,
2013-07-29 15:35:00,73.0,59.2,30.00,North,360,0.0,0.0,62,0.00,,---,0.00,VWS V14.00,2013-07-29 20:35:00,
2013-07-29 15:40:00,72.9,59.6,30.00,North,350,0.0,1.0,63,0.00,,---,0.00,VWS V14.00,2013-07-29 20:40:00,
2013-07-29 15:45:00,73.3,60.8,30.00,NNW,338,0.0,1.0,65,0.00,,---,0.00,VWS V14.00,2013-07-29 20:45:00,
2013-07-29 15:50:00,73.6,59.8,30.00,NNW,348,1.0,5.0,62,0.00,,---,0.00,VWS V14.00,2013-07-29 20:50:00,
2013-07-29 15:55:00,73.7,59.9,30.00,NNW,348,0.0,4.0,62,0.00,,---,0.00,VWS V14.00,2013-07-29 20:55:00,
2013-07-29 16:00:00,73.6,60.2,30.00,NNE,15,0.0,2.0,63,0.00,,---,0.00,VWS V14.00,2013-07-29 21:00:00,
2013-07-29 16:05:00,73.9,60.5,30.00,NNW,330,0.0,2.0,63,0.00,,---,0.00,VWS V14.00,2013-07-29 21:05:00,
2013-07-29 16:06:00,73.9,59.6,30.00,NNW,332,0.0,1.0,61,0.00,,---,0.00,VWS V14.00,2013-07-29 21:06:00,
2013-07-29 16:10:00,74.1,59.8,30.00,East,80,0.0,4.0,61,0.00,,---,0.00,VWS V14.00,2013-07-29 21:10:00,
2013-07-29 16:11:00,74.1,60.3,30.00,ENE,68,0.0,3.0,62,0.00,,---,0.00,VWS V14.00,2013-07-29 21:11:00,
2013-07-29 16:15:00,73.9,60.1,30.00,ESE,110,0.0,3.0,62,0.00,,---,0.00,VWS V14.00,2013-07-29 21:15:00,
2013-07-29 16:16:00,73.9,60.1,30.00,SE,138,4.0,4.0,62,0.00,,---,0.00,VWS V14.00,2013-07-29 21:16:00,
2013-07-29 16:20:00,73.5,59.2,30.00,SE,137,0.0,4.0,61,0.00,,---,0.00,VWS V14.00,2013-07-29 21:20:00,
2013-07-29 16:21:00,73.2,59.4,30.00,SE,135,0.0,1.0,62,0.00,,---,0.00,VWS V14.00,2013-07-29 21:21:00,
2013-07-29 16:25:00,72.8,59.0,30.00,SSW,208,0.0,4.0,62,0.00,,---,0.00,VWS V14.00,2013-07-29 21:25:00,
2013-07-29 16:26:00,72.7,59.4,30.00,SSW,208,0.0,0.0,63,0.00,,---,0.00,VWS V14.00,2013-07-29 21:26:00,
2013-07-29 16:30:00,72.7,60.7,30.00,SSW,207,0.0,1.0,66,0.00,,---,0.00,VWS V14.00,2013-07-29 21:30:00,
2013-07-29 16:31:00,72.9,60.9,30.00,SE,125,1.0,2.0,66,0.00,,---,0.00,VWS V14.00,2013-07-29 21:31:00,
2013-07-29 16:35:00,73.1,60.2,30.00,ENE,78,1.0,3.0,64,0.00,,---,0.00,VWS V14.00,2013-07-29 21:35:00,
2013-07-29 16:36:00,73.3,60.8,30.00,ENE,78,0.0,1.0,65,0.00,,---,0.00,VWS V14.00,2013-07-29 21:36:00,
2013-07-29 16:40:00,73.5,61.0,30.00,ENE,78,0.0,1.0,65,0.00,,---,0.00,VWS V14.00,2013-07-29 21:40:00,
2013-07-29 16:41:00,73.4,60.9,30.00,South,188,0.0,2.0,65,0.00,,---,0.00,VWS V14.00,2013-07-29 21:41:00,
2013-07-29 16:45:00,73.3,60.0,30.00,South,189,0.0,2.0,63,0.00,,---,0.00,VWS V14.00,2013-07-29 21:45:00,
2013-07-29 16:46:00,73.3,60.4,30.00,South,189,0.0,0.0,64,0.00,,---,0.00,VWS V14.00,2013-07-29 21:46:00,
2013-07-29 16:50:00,73.1,59.8,30.00,South,190,0.0,3.0,63,0.00,,---,0.00,VWS V14.00,2013-07-29 21:50:00,
2013-07-29 16:52:00,73.1,61.1,30.00,South,190,0.0,1.0,66,0.00,,---,0.00,VWS V14.00,2013-07-29 21:52:00,
2013-07-29 16:55:00,73.3,60.8,30.00,WSW,246,0.0,5.0,65,0.00,,---,0.00,VWS V14.00,2013-07-29 21:55:00,
2013-07-29 16:57:00,73.7,60.8,30.00,SE,146,0.0,4.0,64,0.00,,---,0.00,VWS V14.00,2013-07-29 21:57:00,
2013-07-29 17:00:00,74.0,60.6,30.00,SE,128,0.0,4.0,63,0.00,,---,0.00,VWS V14.00,2013-07-29 22:00:00,
2013-07-29 17:02:00,74.2,60.8,30.00,South,171,3.0,9.0,63,0.00,,---,0.00,VWS V14.00,2013-07-29 22:02:00,
2013-07-29 17:05:00,74.3,60.9,30.00,South,169,4.0,9.0,63,0.00,,---,0.00,VWS V14.00,2013-07-29 22:05:00,
2013-07-29 17:07:00,74.1,59.8,30.00,SE,144,3.0,5.0,61,0.00,,---,0.00,VWS V14.00,2013-07-29 22:07:00,
2013-07-29 17:10:00,74.1,59.3,30.00,SSW,213,1.0,5.0,60,0.00,,---,0.00,VWS V14.00,2013-07-29 22:10:00,
2013-07-29 17:12:00,74.2,59.9,30.00,SSW,213,0.0,1.0,61,0.00,,---,0.00,VWS V14.00,2013-07-29 22:12:00,
2013-07-29 17:15:00,74.4,61.0,30.00,SW,214,0.0,1.0,63,0.00,,---,0.00,VWS V14.00,2013-07-29 22:15:00,
2013-07-29 17:17:00,74.6,59.8,30.00,South,170,1.0,6.0,60,0.00,,---,0.00,VWS V14.00,2013-07-29 22:17:00,
2013-07-29 17:20:00,74.4,60.1,30.00,South,170,1.0,6.0,61,0.00,,---,0.00,VWS V14.00,2013-07-29 22:20:00,
2013-07-29 17:22:00,74.4,59.6,30.00,SSW,197,1.0,3.0,60,0.00,,---,0.00,VWS V14.00,2013-07-29 22:22:00,
2013-07-29 17:25:00,74.2,59.9,30.00,South,189,0.0,4.0,61,0.00,,---,0.00,VWS V14.00,2013-07-29 22:25:00,
2013-07-29 17:28:00,74.1,60.3,30.00,South,189,0.0,1.0,62,0.00,,---,0.00,VWS V14.00,2013-07-29 22:28:00,
2013-07-29 17:30:00,74.2,60.8,30.00,SW,219,2.0,2.0,63,0.00,,---,0.00,VWS V14.00,2013-07-29 22:30:00,
2013-07-29 17:33:00,74.3,59.5,30.00,WSW,238,0.0,3.0,60,0.00,,---,0.00,VWS V14.00,2013-07-29 22:33:00,
2013-07-29 17:35:00,74.5,60.6,30.00,West,273,0.0,3.0,62,0.00,,---,0.00,VWS V14.00,2013-07-29 22:35:00,
2013-07-29 17:38:00,74.7,59.9,30.00,SSE,160,3.0,4.0,60,0.00,,---,0.00,VWS V14.00,2013-07-29 22:38:00,
2013-07-29 17:40:00,74.7,60.4,30.00,South,173,0.0,7.0,61,0.00,,---,0.00,VWS V14.00,2013-07-29 22:40:00,
2013-07-29 17:43:00,74.4,60.1,30.00,SSE,152,0.0,6.0,61,0.00,,---,0.00,VWS V14.00,2013-07-29 22:43:00,
2013-07-29 17:45:00,74.4,60.1,30.00,SSW,203,4.0,6.0,61,0.00,,---,0.00,VWS V14.00,2013-07-29 22:45:00,
2013-07-29 17:48:00,74.1,59.8,30.00,SSW,192,0.0,5.0,61,0.00,,---,0.00,VWS V14.00,2013-07-29 22:48:00,
2013-07-29 17:50:00,74.0,60.2,30.00,South,190,0.0,5.0,62,0.00,,---,0.00,VWS V14.00,2013-07-29 22:50:00,
2013-07-29 17:53:00,74.0,59.7,30.00,SSW,197,0.0,4.0,61,0.00,,---,0.00,VWS V14.00,2013-07-29 22:53:00,
2013-07-29 17:55:00,73.9,59.6,30.00,SSW,192,0.0,4.0,61,0.00,,---,0.00,VWS V14.00,2013-07-29 22:55:00,
2013-07-29 17:58:00,74.2,59.9,30.00,SSW,192,0.0,1.0,61,0.00,,---,0.00,VWS V14.00,2013-07-29 22:58:00,
2013-07-29 18:00:00,74.3,59.5,30.00,SSW,192,0.0,1.0,60,0.00,,---,0.00,VWS V14.00,2013-07-29 23:00:00,
2013-07-29 18:03:00,74.2,59.4,30.00,SSW,200,1.0,4.0,60,0.00,,---,0.00,VWS V14.00,2013-07-29 23:03:00,
2013-07-29 18:05:00,74.1,59.3,30.00,SSW,200,0.0,4.0,60,0.00,,---,0.00,VWS V14.00,2013-07-29 23:05:00,
2013-07-29 18:08:00,73.8,59.1,30.00,SSE,166,4.0,5.0,60,0.00,,---,0.00,VWS V14.00,2013-07-29 23:08:00,
2013-07-29 18:10:00,73.7,59.0,30.00,SSE,165,0.0,5.0,60,0.00,,---,0.00,VWS V14.00,2013-07-29 23:10:00,
2013-07-29 18:13:00,73.8,60.0,30.00,SSE,166,0.0,1.0,62,0.00,,---,0.00,VWS V14.00,2013-07-29 23:13:00,
2013-07-29 18:15:00,73.9,59.6,30.00,SSE,166,0.0,1.0,61,0.00,,---,0.00,VWS V14.00,2013-07-29 23:15:00,
2013-07-29 18:18:00,74.3,60.5,30.00,SSE,166,0.0,1.0,62,0.00,,---,0.00,VWS V14.00,2013-07-29 23:18:00,
2013-07-29 18:20:00,74.5,60.2,30.00,SSE,166,0.0,1.0,61,0.00,,---,0.00,VWS V14.00,2013-07-29 23:20:00,
2013-07-29 18:23:00,74.9,60.6,30.00,SSE,166,0.0,1.0,61,0.00,,---,0.00,VWS V14.00,2013-07-29 23:23:00,
2013-07-29 18:25:00,75.0,60.2,30.00,SSE,165,0.0,1.0,60,0.00,,---,0.00,VWS V14.00,2013-07-29 23:25:00,
2013-07-29 18:28:00,75.3,59.5,30.00,SSE,166,0.0,0.0,58,0.00,,---,0.00,VWS V14.00,2013-07-29 23:28:00,
2013-07-29 18:30:00,75.3,60.0,30.00,SSE,165,0.0,0.0,59,0.00,,---,0.00,VWS V14.00,2013-07-29 23:30:00,
2013-07-29 18:33:00,75.6,60.3,30.00,SSE,166,0.0,1.0,59,0.00,,---,0.00,VWS V14.00,2013-07-29 23:33:00,
2013-07-29 18:35:00,75.6,60.8,30.00,SSE,166,0.0,1.0,60,0.00,,---,0.00,VWS V14.00,2013-07-29 23:35:00,
2013-07-29 18:38:00,75.7,59.9,30.00,SSE,165,0.0,1.0,58,0.00,,---,0.00,VWS V14.00,2013-07-29 23:38:00,
2013-07-29 18:40:00,75.6,59.3,30.00,SSE,166,0.0,1.0,57,0.00,,---,0.00,VWS V14.00,2013-07-29 23:40:00,
2013-07-29 18:43:00,74.9,59.6,30.00,SSE,166,0.0,3.0,59,0.00,,---,0.00,VWS V14.00,2013-07-29 23:43:00,
2013-07-29 18:45:00,74.6,59.8,30.00,SSE,165,0.0,3.0,60,0.00,,---,0.00,VWS V14.00,2013-07-29 23:45:00,
2013-07-29 18:49:00,73.6,60.7,30.00,SSE,166,0.0,2.0,64,0.00,,---,0.00,VWS V14.00,2013-07-29 23:49:00,
2013-07-29 18:50:00,73.5,60.6,30.00,SSE,166,0.0,2.0,64,0.00,,---,0.00,VWS V14.00,2013-07-29 23:50:00,
2013-07-29 18:54:00,73.1,60.7,30.00,SE,130,0.0,4.0,65,0.00,,---,0.00,VWS V14.00,2013-07-29 23:54:00,
2013-07-29 18:55:00,73.1,60.7,30.00,SE,130,0.0,4.0,65,0.00,,---,0.00,VWS V14.00,2013-07-29 23:55:00,
2013-07-29 18:59:00,72.9,60.5,30.00,East,93,0.0,2.0,65,0.00,,---,0.00,VWS V14.00,2013-07-29 23:59:00,
2013-07-29 19:00:00,72.8,60.4,30.00,East,93,0.0,2.0,65,0.00,,---,0.00,VWS V14.00,2013-07-30 00:00:00,
2013-07-29 19:04:00,72.6,60.6,30.00,East,92,0.0,1.0,66,0.00,,---,0.00,VWS V14.00,2013-07-30 00:04:00,
2013-07-29 19:05:00,72.5,60.5,30.00,East,92,0.0,1.0,66,0.00,,---,0.00,VWS V14.00,2013-07-30 00:05:00,
2013-07-29 19:09:00,72.2,60.7,30.00,East,88,0.0,2.0,67,0.00,,---,0.00,VWS V14.00,2013-07-30 00:09:00,
2013-07-29 19:10:00,72.2,60.7,30.00,East,88,0.0,2.0,67,0.00,,---,0.00,VWS V14.00,2013-07-30 00:10:00,
2013-07-29 19:14:00,72.0,61.3,30.00,East,88,0.0,1.0,69,0.00,,---,0.00,VWS V14.00,2013-07-30 00:14:00,
2013-07-29 19:15:00,72.1,61.4,30.00,East,88,0.0,1.0,69,0.00,,---,0.00,VWS V14.00,2013-07-30 00:15:00,
2013-07-29 19:19:00,71.6,60.9,30.00,East,89,0.0,1.0,69,0.00,,---,0.00,VWS V14.00,2013-07-30 00:19:00,
2013-07-29 19:20:00,71.6,60.9,30.00,East,88,0.0,1.0,69,0.00,,---,0.00,VWS V14.00,2013-07-30 00:20:00,
2013-07-29 19:24:00,71.3,61.0,30.00,East,89,0.0,0.0,70,0.00,,---,0.00,VWS V14.00,2013-07-30 00:24:00,
2013-07-29 19:25:00,71.3,61.0,30.00,East,89,0.0,0.0,70,0.00,,---,0.00,VWS V14.00,2013-07-30 00:25:00,
2013-07-29 19:29:00,71.0,60.7,30.01,East,87,0.0,1.0,70,0.00,,---,0.00,VWS V14.00,2013-07-30 00:29:00,
2013-07-29 19:30:00,71.0,60.7,30.01,East,87,0.0,1.0,70,0.00,,---,0.00,VWS V14.00,2013-07-30 00:30:00,
2013-07-29 19:34:00,70.6,60.8,30.01,East,82,0.0,1.0,71,0.00,,---,0.00,VWS V14.00,2013-07-30 00:34:00,
2013-07-29 19:35:00,70.6,60.8,30.01,East,82,0.0,1.0,71,0.00,,---,0.00,VWS V14.00,2013-07-30 00:35:00,
2013-07-29 19:39:00,70.4,61.0,30.00,East,82,0.0,0.0,72,0.00,,---,0.00,VWS V14.00,2013-07-30 00:39:00,
2013-07-29 19:40:00,70.4,61.0,30.00,East,82,0.0,0.0,72,0.00,,---,0.00,VWS V14.00,2013-07-30 00:40:00,
2013-07-29 19:44:00,70.1,61.0,30.01,East,82,0.0,0.0,73,0.00,,---,0.00,VWS V14.00,2013-07-30 00:44:00,
2013-07-29 19:45:00,70.1,61.0,30.01,East,82,0.0,0.0,73,0.00,,---,0.00,VWS V14.00,2013-07-30 00:45:00,
2013-07-29 19:49:00,69.6,61.0,30.01,East,82,0.0,0.0,74,0.00,,---,0.00,VWS V14.00,2013-07-30 00:49:00,
2013-07-29 19:50:00,69.6,61.0,30.01,East,82,0.0,0.0,74,0.00,,---,0.00,VWS V14.00,2013-07-30 00:50:00,
2013-07-29 19:54:00,69.1,61.2,30.01,East,82,0.0,1.0,76,0.00,,---,0.00,VWS V14.00,2013-07-30 00:54:00,
2013-07-29 19:55:00,69.1,61.2,30.01,East,82,0.0,1.0,76,0.00,,---,0.00,VWS V14.00,2013-07-30 00:55:00,
2013-07-29 19:59:00,68.6,60.7,30.01,East,82,0.0,1.0,76,0.00,,---,0.00,VWS V14.00,2013-07-30 00:59:00,
2013-07-29 20:00:00,68.6,60.7,30.01,East,82,0.0,1.0,76,0.00,,---,0.00,VWS V14.00,2013-07-30 01:00:00,
2013-07-29 20:04:00,68.3,60.8,30.01,East,82,0.0,1.0,77,0.00,,---,0.00,VWS V14.00,2013-07-30 01:04:00,
2013-07-29 20:05:00,68.3,60.8,30.01,East,82,0.0,1.0,77,0.00,,---,0.00,VWS V14.00,2013-07-30 01:05:00,
2013-07-29 20:09:00,68.1,60.6,30.01,East,82,0.0,0.0,77,0.00,,---,0.00,VWS V14.00,2013-07-30 01:09:00,
2013-07-29 20:10:00,68.1,60.6,30.01,East,82,0.0,0.0,77,0.00,,---,0.00,VWS V14.00,2013-07-30 01:10:00,
2013-07-29 20:14:00,67.8,60.7,30.00,East,82,0.0,1.0,78,0.00,,---,0.00,VWS V14.00,2013-07-30 01:14:00,
2013-07-29 20:15:00,67.8,60.7,30.00,East,82,0.0,1.0,78,0.00,,---,0.00,VWS V14.00,2013-07-30 01:15:00,
2013-07-29 20:19:00,67.5,60.8,30.00,East,82,0.0,0.0,79,0.00,,---,0.00,VWS V14.00,2013-07-30 01:19:00,
2013-07-29 20:20:00,67.5,60.8,30.00,East,82,0.0,0.0,79,0.00,,---,0.00,VWS V14.00,2013-07-30 01:20:00,
2013-07-29 20:24:00,67.1,60.4,30.01,East,82,0.0,0.0,79,0.00,,---,0.00,VWS V14.00,2013-07-30 01:24:00,
2013-07-29 20:25:00,67.1,60.4,30.01,East,82,0.0,0.0,79,0.00,,---,0.00,VWS V14.00,2013-07-30 01:25:00,
2013-07-29 20:29:00,66.5,60.2,30.01,East,82,0.0,0.0,80,0.00,,---,0.00,VWS V14.00,2013-07-30 01:29:00,
2013-07-29 20:30:00,66.6,60.2,30.01,East,82,0.0,1.0,80,0.00,,---,0.00,VWS V14.00,2013-07-30 01:30:00,
2013-07-29 20:34:00,66.0,60.0,30.01,East,82,0.0,0.0,81,0.00,,---,0.00,VWS V14.00,2013-07-30 01:34:00,
2013-07-29 20:35:00,66.0,60.0,30.01,East,82,0.0,0.0,81,0.00,,---,0.00,VWS V14.00,2013-07-30 01:35:00,
2013-07-29 20:39:00,65.4,59.8,30.01,East,82,0.0,0.0,82,0.00,,---,0.00,VWS V14.00,2013-07-30 01:39:00,
2013-07-29 20:40:00,65.5,59.9,30.01,East,82,0.0,1.0,82,0.00,,---,0.00,VWS V14.00,2013-07-30 01:40:00,
2013-07-29 20:44:00,65.1,59.8,30.01,East,82,0.0,0.0,83,0.00,,---,0.00,VWS V14.00,2013-07-30 01:44:00,
2013-07-29 20:45:00,65.1,59.8,30.01,East,82,0.0,0.0,83,0.00,,---,0.00,VWS V14.00,2013-07-30 01:45:00,
2013-07-29 20:50:00,64.7,59.8,30.01,East,82,0.0,0.0,84,0.00,,---,0.00,VWS V14.00,2013-07-30 01:50:00,
2013-07-29 20:55:00,64.4,59.5,30.02,East,82,0.0,0.0,84,0.00,,---,0.00,VWS V14.00,2013-07-30 01:55:00,
2013-07-29 21:00:00,64.0,59.4,30.02,East,82,0.0,0.0,85,0.00,,---,0.00,VWS V14.00,2013-07-30 02:00:00,
2013-07-29 21:05:00,63.6,59.3,30.02,East,82,0.0,0.0,86,0.00,,---,0.00,VWS V14.00,2013-07-30 02:05:00,
2013-07-29 21:10:00,63.4,59.5,30.02,East,82,0.0,0.0,87,0.00,,---,0.00,VWS V14.00,2013-07-30 02:10:00,
2013-07-29 21:15:00,63.1,59.2,30.02,East,82,0.0,0.0,87,0.00,,---,0.00,VWS V14.00,2013-07-30 02:15:00,
2013-07-29 21:20:00,62.8,59.2,30.02,East,82,0.0,0.0,88,0.00,,---,0.00,VWS V14.00,2013-07-30 02:20:00,
2013-07-29 21:25:00,62.4,58.8,30.02,East,82,0.0,0.0,88,0.00,,---,0.00,VWS V14.00,2013-07-30 02:25:00,
2013-07-29 21:30:00,62.2,58.9,30.02,East,82,0.0,0.0,89,0.00,,---,0.00,VWS V14.00,2013-07-30 02:30:00,
2013-07-29 21:35:00,62.1,58.8,30.02,East,82,0.0,0.0,89,0.00,,---,0.00,VWS V14.00,2013-07-30 02:35:00,
2013-07-29 21:36:00,62.1,58.8,30.02,East,82,0.0,0.0,89,0.00,,---,0.00,VWS V14.00,2013-07-30 02:36:00,
2013-07-29 21:40:00,62.0,58.7,30.03,East,82,0.0,0.0,89,0.00,,---,0.00,VWS V14.00,2013-07-30 02:40:00,
2013-07-29 21:41:00,61.9,58.6,30.03,East,82,0.0,0.0,89,0.00,,---,0.00,VWS V14.00,2013-07-30 02:41:00,
2013-07-29 21:45:00,61.8,58.8,30.03,East,82,0.0,0.0,90,0.00,,---,0.00,VWS V14.00,2013-07-30 02:45:00,
2013-07-29 21:46:00,61.8,58.8,30.03,East,82,0.0,0.0,90,0.00,,---,0.00,VWS V14.00,2013-07-30 02:46:00,
2013-07-29 21:50:00,61.7,58.7,30.03,East,82,0.0,0.0,90,0.00,,---,0.00,VWS V14.00,2013-07-30 02:50:00,
2013-07-29 21:51:00,61.7,58.7,30.03,East,82,0.0,0.0,90,0.00,,---,0.00,VWS V14.00,2013-07-30 02:51:00,
2013-07-29 21:55:00,61.5,58.5,30.03,East,82,0.0,0.0,90,0.00,,---,0.00,VWS V14.00,2013-07-30 02:55:00,
2013-07-29 21:56:00,61.4,58.5,30.03,East,82,0.0,0.0,90,0.00,,---,0.00,VWS V14.00,2013-07-30 02:56:00,
2013-07-29 22:00:00,61.2,58.2,30.03,East,82,0.0,0.0,90,0.00,,---,0.00,VWS V14.00,2013-07-30 03:00:00,
2013-07-29 22:01:00,61.2,58.2,30.03,East,82,0.0,0.0,90,0.00,,---,0.00,VWS V14.00,2013-07-30 03:01:00,
2013-07-29 22:05:00,61.1,58.5,30.03,East,82,0.0,0.0,91,0.00,,---,0.00,VWS V14.00,2013-07-30 03:05:00,
2013-07-29 22:06:00,61.1,58.5,30.03,East,82,0.0,0.0,91,0.00,,---,0.00,VWS V14.00,2013-07-30 03:06:00,
2013-07-29 22:10:00,60.9,58.3,30.03,East,82,0.0,1.0,91,0.00,,---,0.00,VWS V14.00,2013-07-30 03:10:00,
2013-07-29 22:11:00,60.9,58.3,30.03,East,82,0.0,0.0,91,0.00,,---,0.00,VWS V14.00,2013-07-30 03:11:00,
2013-07-29 22:15:00,60.8,58.2,30.03,East,82,0.0,0.0,91,0.00,,---,0.00,VWS V14.00,2013-07-30 03:15:00,
2013-07-29 22:16:00,60.8,58.5,30.03,East,82,0.0,0.0,92,0.00,,---,0.00,VWS V14.00,2013-07-30 03:16:00,
2013-07-29 22:20:00,60.9,58.6,30.03,East,82,0.0,0.0,92,0.00,,---,0.00,VWS V14.00,2013-07-30 03:20:00,
2013-07-29 22:21:00,60.9,58.6,30.04,East,82,0.0,0.0,92,0.00,,---,0.00,VWS V14.00,2013-07-30 03:21:00,
2013-07-29 22:25:00,60.9,58.3,30.03,East,82,0.0,0.0,91,0.00,,---,0.00,VWS V14.00,2013-07-30 03:25:00,
2013-07-29 22:26:00,60.8,58.2,30.03,East,82,0.0,0.0,91,0.00,,---,0.00,VWS V14.00,2013-07-30 03:26:00,
2013-07-29 22:30:00,60.7,58.1,30.03,East,82,0.0,0.0,91,0.00,,---,0.00,VWS V14.00,2013-07-30 03:30:00,
2013-07-29 22:31:00,60.6,58.0,30.03,East,82,0.0,0.0,91,0.00,,---,0.00,VWS V14.00,2013-07-30 03:31:00,
2013-07-29 22:35:00,60.5,57.9,30.03,East,82,0.0,0.0,91,0.00,,---,0.00,VWS V14.00,2013-07-30 03:35:00,
2013-07-29 22:36:00,60.5,57.9,30.03,East,82,0.0,0.0,91,0.00,,---,0.00,VWS V14.00,2013-07-30 03:36:00,
2013-07-29 22:40:00,60.4,57.8,30.03,East,82,0.0,0.0,91,0.00,,---,0.00,VWS V14.00,2013-07-30 03:40:00,
2013-07-29 22:41:00,60.4,57.8,30.03,East,82,0.0,0.0,91,0.00,,---,0.00,VWS V14.00,2013-07-30 03:41:00,
2013-07-29 22:45:00,60.3,57.7,30.03,East,82,0.0,0.0,91,0.00,,---,0.00,VWS V14.00,2013-07-30 03:45:00,
2013-07-29 22:46:00,60.3,57.7,30.03,East,82,0.0,0.0,91,0.00,,---,0.00,VWS V14.00,2013-07-30 03:46:00,
2013-07-29 22:50:00,60.2,57.9,30.03,East,82,0.0,0.0,92,0.00,,---,0.00,VWS V14.00,2013-07-30 03:50:00,
2013-07-29 22:52:00,60.1,57.8,30.03,East,82,0.0,0.0,92,0.00,,---,0.00,VWS V14.00,2013-07-30 03:52:00,
2013-07-29 22:55:00,60.0,57.7,30.03,East,82,0.0,0.0,92,0.00,,---,0.00,VWS V14.00,2013-07-30 03:55:00,
2013-07-29 22:57:00,59.9,57.6,30.04,East,82,0.0,0.0,92,0.00,,---,0.00,VWS V14.00,2013-07-30 03:57:00,
2013-07-29 23:00:00,59.8,57.5,30.03,East,82,0.0,0.0,92,0.00,,---,0.00,VWS V14.00,2013-07-30 04:00:00,
2013-07-29 23:01:00,59.8,57.5,30.03,East,82,0.0,0.0,92,0.00,,---,0.00,VWS V14.00,2013-07-30 04:01:00,
2013-07-29 23:02:00,59.8,57.5,30.03,East,82,0.0,0.0,92,0.00,,---,0.00,VWS V14.00,2013-07-30 04:02:00,
2013-07-29 23:05:00,59.7,57.4,30.03,East,82,0.0,0.0,92,0.00,,---,0.00,VWS V14.00,2013-07-30 04:05:00,
2013-07-29 23:07:00,59.6,57.3,30.03,East,82,0.0,0.0,92,0.00,,---,0.00,VWS V14.00,2013-07-30 04:07:00,
2013-07-29 23:10:00,59.6,57.6,30.03,East,82,0.0,0.0,93,0.00,,---,0.00,VWS V14.00,2013-07-30 04:10:00,
2013-07-29 23:12:00,59.6,57.6,30.03,East,82,0.0,0.0,93,0.00,,---,0.00,VWS V14.00,2013-07-30 04:12:00,
2013-07-29 23:15:00,59.6,57.6,30.03,East,82,0.0,1.0,93,0.00,,---,0.00,VWS V14.00,2013-07-30 04:15:00,
2013-07-29 23:17:00,59.5,57.2,30.03,East,82,0.0,0.0,92,0.00,,---,0.00,VWS V14.00,2013-07-30 04:17:00,
2013-07-29 23:20:00,59.5,57.5,30.03,East,82,0.0,0.0,93,0.00,,---,0.00,VWS V14.00,2013-07-30 04:20:00,
2013-07-29 23:22:00,59.3,57.3,30.03,East,82,0.0,0.0,93,0.00,,---,0.00,VWS V14.00,2013-07-30 04:22:00,
2013-07-29 23:25:00,59.3,57.3,30.03,East,82,0.0,0.0,93,0.00,,---,0.00,VWS V14.00,2013-07-30 04:25:00,
2013-07-29 23:28:00,59.2,57.2,30.03,East,82,0.0,0.0,93,0.00,,---,0.00,VWS V14.00,2013-07-30 04:28:00,
2013-07-29 23:30:00,59.1,57.1,30.03,East,82,0.0,0.0,93,0.00,,---,0.00,VWS V14.00,2013-07-30 04:30:00,
2013-07-29 23:33:00,59.1,57.1,30.03,East,82,0.0,0.0,93,0.00,,---,0.00,VWS V14.00,2013-07-30 04:33:00,
2013-07-29 23:35:00,59.1,57.1,30.03,East,82,0.0,0.0,93,0.00,,---,0.00,VWS V14.00,2013-07-30 04:35:00,
2013-07-29 23:38:00,59.0,57.0,30.03,East,82,0.0,0.0,93,0.00,,---,0.00,VWS V14.00,2013-07-30 04:38:00,
2013-07-29 23:40:00,59.0,57.0,30.03,East,82,0.0,0.0,93,0.00,,---,0.00,VWS V14.00,2013-07-30 04:40:00,
2013-07-29 23:43:00,58.8,56.8,30.03,East,82,0.0,0.0,93,0.00,,---,0.00,VWS V14.00,2013-07-30 04:43:00,
2013-07-29 23:45:00,58.7,56.7,30.04,East,82,0.0,0.0,93,0.00,,---,0.00,VWS V14.00,2013-07-30 04:45:00,
2013-07-29 23:48:00,58.6,56.6,30.04,East,82,0.0,0.0,93,0.00,,---,0.00,VWS V14.00,2013-07-30 04:48:00,
2013-07-29 23:50:00,58.6,56.6,30.04,East,82,0.0,0.0,93,0.00,,---,0.00,VWS V14.00,2013-07-30 04:50:00,
2013-07-29 23:53:00,58.5,56.5,30.04,East,82,0.0,0.0,93,0.00,,---,0.00,VWS V14.00,2013-07-30 04:53:00,
2013-07-29 23:55:00,58.5,56.8,30.04,East,82,0.0,0.0,94,0.00,,---,0.00,VWS V14.00,2013-07-30 04:55:00,
2013-07-29 23:58:00,58.6,56.9,30.04,East,82,0.0,0.0,94,0.00,,---,0.00,VWS V14.00,2013-07-30 04:58:00,